Hilvarenbeek, Netherlands
Current Conditions -  °F | °C
As of 12:25 AM on Thursday 27 Nov 2014 (Local Time) from EHGR Reporting Station
Haze Haze  
Wind Chill: 40°   Ceiling: 700
Heat Index: 45°   Visibility: 4mi
Dew Point: 43°   Wind: 9mph
Humidity: 93%   Direction: 130°SE
Pressure: 29.83"   Gusts: NA
Location:  51.49°N, 5.14°E
Report Text: EHGR 262325Z AUTO 13008KT 6000 BR OVC007 07/06 Q1010 GRN
Loading
Personal Weather Stations






























Interactive Weather Map New forecast layout! Learn more

10-Day Weather Forecast

Advertisements
Track Severe Weather on mobile